createdAt,value
2022-09-30T00:01:59.813Z,9.75
2022-09-30T00:05:16.743Z,9.74
2022-09-30T00:08:32.878Z,9.76
2022-09-30T00:11:50.055Z,9.79
2022-09-30T00:15:06.425Z,9.79
2022-09-30T00:18:22.926Z,9.79
2022-09-30T00:21:39.662Z,9.74
2022-09-30T00:24:55.724Z,9.69
2022-09-30T00:28:12.354Z,9.73
2022-09-30T00:31:30.811Z,9.66
2022-09-30T00:34:47.164Z,9.69
2022-09-30T00:38:03.218Z,9.69
2022-09-30T00:41:19.710Z,9.65
2022-09-30T00:45:01.112Z,9.66
2022-09-30T00:48:21.176Z,9.64
2022-09-30T00:51:42.680Z,9.63
2022-09-30T00:54:59.840Z,9.63
2022-09-30T00:58:22.082Z,9.64
2022-09-30T01:01:38.600Z,9.62
2022-09-30T01:04:57.132Z,9.62
2022-09-30T01:08:19.025Z,9.61
2022-09-30T01:11:37.721Z,9.59
2022-09-30T01:14:55.711Z,9.59
2022-09-30T01:18:16.163Z,9.59
2022-09-30T01:22:16.089Z,9.53
2022-09-30T01:29:14.105Z,9.55
2022-09-30T01:32:40.334Z,9.57
2022-09-30T01:36:11.068Z,9.59
2022-09-30T01:39:38.756Z,9.60
2022-09-30T01:42:59.208Z,9.56
2022-09-30T01:46:21.744Z,9.61
2022-09-30T01:49:43.553Z,9.64
2022-09-30T01:53:04.337Z,9.67
2022-09-30T01:56:26.316Z,9.70
2022-09-30T01:59:48.014Z,9.70
2022-09-30T02:03:10.122Z,9.74
2022-09-30T02:06:31.820Z,9.75
2022-09-30T02:09:53.482Z,9.78
2022-09-30T02:13:15.506Z,9.82
2022-09-30T02:16:37.019Z,9.78
2022-09-30T02:19:57.373Z,9.83
2022-09-30T02:23:17.599Z,9.88
2022-09-30T02:26:37.953Z,9.91
2022-09-30T02:29:59.913Z,9.90
2022-09-30T02:33:20.954Z,9.93
2022-09-30T02:36:43.069Z,9.96
2022-09-30T02:40:03.917Z,10.00
2022-09-30T02:43:21.388Z,10.03
2022-09-30T02:46:46.092Z,10.02
2022-09-30T02:50:08.128Z,10.05
2022-09-30T02:53:31.489Z,10.02
2022-09-30T03:00:05.232Z,10.04
2022-09-30T03:03:25.848Z,10.04
2022-09-30T03:06:42.525Z,10.01
2022-09-30T03:10:03.217Z,10.01
2022-09-30T03:13:46.625Z,10.01
2022-09-30T03:17:35.228Z,10.00
2022-09-30T03:21:00.649Z,9.99
2022-09-30T03:27:37.795Z,9.97
2022-09-30T03:31:00.362Z,9.99
2022-09-30T03:34:22.713Z,10.01
2022-09-30T03:37:46.313Z,10.02
2022-09-30T03:41:09.291Z,10.05
2022-09-30T03:44:30.807Z,10.09
2022-09-30T03:47:51.298Z,10.08
2022-09-30T03:51:08.724Z,10.09
2022-09-30T03:57:40.512Z,10.09
2022-09-30T04:01:01.781Z,10.11
2022-09-30T04:04:17.982Z,10.11
2022-09-30T04:07:34.021Z,10.10
2022-09-30T04:10:51.593Z,10.13
2022-09-30T04:14:07.912Z,10.14
2022-09-30T04:17:23.966Z,10.13
2022-09-30T04:20:41.241Z,10.14
2022-09-30T04:23:58.592Z,10.16
2022-09-30T04:30:48.938Z,10.16
2022-09-30T04:34:06.210Z,10.13
2022-09-30T04:37:22.113Z,10.17
2022-09-30T04:40:38.168Z,10.19
2022-09-30T04:43:56.311Z,10.19
2022-09-30T04:47:12.391Z,10.19
2022-09-30T04:50:28.660Z,10.24
2022-09-30T04:53:45.116Z,10.25
2022-09-30T04:57:01.208Z,10.26
2022-09-30T05:00:22.141Z,10.29
2022-09-30T05:03:39.127Z,10.25
2022-09-30T05:06:55.276Z,10.26
2022-09-30T05:13:27.345Z,10.27
2022-09-30T05:16:43.285Z,10.27
2022-09-30T05:19:59.693Z,10.31
2022-09-30T05:23:16.206Z,10.29
2022-09-30T05:26:33.780Z,10.32
2022-09-30T05:29:49.919Z,10.34
2022-09-30T05:33:05.965Z,10.34
2022-09-30T05:36:24.522Z,10.36
2022-09-30T05:42:56.407Z,10.33
2022-09-30T05:46:12.918Z,10.32
2022-09-30T05:49:29.259Z,10.33
2022-09-30T05:52:45.283Z,10.37
2022-09-30T05:56:01.906Z,10.33
2022-09-30T05:59:18.087Z,10.34
2022-09-30T06:02:34.414Z,10.36
2022-09-30T06:05:51.337Z,10.41
2022-09-30T06:09:07.563Z,10.43
2022-09-30T06:12:27.079Z,10.45
2022-09-30T06:15:48.119Z,10.46
2022-09-30T06:19:06.940Z,10.46
2022-09-30T06:22:23.288Z,10.46
2022-09-30T06:25:40.101Z,10.48
2022-09-30T06:28:56.427Z,10.49
2022-09-30T06:32:17.898Z,10.48
2022-09-30T06:35:34.300Z,10.49
2022-09-30T06:38:52.195Z,10.51
2022-09-30T06:42:08.642Z,10.56
2022-09-30T06:45:31.963Z,10.56
2022-09-30T06:48:43.515Z,10.55
2022-09-30T06:52:01.288Z,10.58
2022-09-30T06:55:21.074Z,10.61
2022-09-30T06:58:37.403Z,10.64
2022-09-30T07:01:53.861Z,10.52
2022-09-30T07:05:10.522Z,10.58
2022-09-30T07:08:26.697Z,10.59
2022-09-30T07:15:01.716Z,10.71
2022-09-30T07:18:19.771Z,10.67
2022-09-30T07:21:36.128Z,10.70
2022-09-30T07:28:07.663Z,10.67
2022-09-30T07:31:34.082Z,10.64
2022-09-30T07:34:47.948Z,10.66
2022-09-30T07:38:05.209Z,10.71
2022-09-30T07:41:27.679Z,10.72
2022-09-30T07:44:45.144Z,10.73
2022-09-30T07:48:02.703Z,10.75
2022-09-30T07:51:20.464Z,10.79
2022-09-30T07:59:32.275Z,10.79
2022-09-30T08:02:48.435Z,10.79
2022-09-30T08:06:10.422Z,10.79
2022-09-30T08:09:30.337Z,10.80
2022-09-30T08:12:47.642Z,10.82
2022-09-30T08:16:06.437Z,10.92
2022-09-30T08:19:29.422Z,10.89
2022-09-30T08:22:45.600Z,10.87
2022-09-30T08:26:07.901Z,10.89
2022-09-30T08:32:46.304Z,10.91
2022-09-30T08:36:02.691Z,10.94
2022-09-30T08:39:19.200Z,10.94
2022-09-30T08:42:56.849Z,10.97
2022-09-30T08:46:17.162Z,11.01
2022-09-30T08:49:55.543Z,11.02
2022-09-30T08:53:16.629Z,11.03
2022-09-30T08:56:35.510Z,11.04
2022-09-30T08:59:55.601Z,11.03
2022-09-30T09:03:12.476Z,11.05
2022-09-30T09:06:40.593Z,11.06
2022-09-30T09:10:08.612Z,11.09
2022-09-30T09:13:41.876Z,11.10
2022-09-30T09:17:10.680Z,11.10
2022-09-30T09:20:30.531Z,11.14
2022-09-30T09:23:46.960Z,11.14
2022-09-30T09:27:05.978Z,11.16
2022-09-30T09:30:25.980Z,11.16
2022-09-30T09:33:45.484Z,11.17
2022-09-30T09:37:12.248Z,11.17
2022-09-30T09:40:36.734Z,11.20
2022-09-30T09:44:03.464Z,11.21
2022-09-30T09:47:21.336Z,11.22
2022-09-30T09:50:44.664Z,11.26
2022-09-30T09:54:03.414Z,11.28
2022-09-30T09:57:24.188Z,11.31
2022-09-30T10:00:56.448Z,11.36
2022-09-30T10:04:28.240Z,11.38
2022-09-30T10:07:44.281Z,11.40
2022-09-30T10:11:04.206Z,11.44
2022-09-30T10:14:25.381Z,11.44
2022-09-30T10:17:43.694Z,11.47
2022-09-30T10:21:06.392Z,11.49
2022-09-30T10:24:38.649Z,11.54
2022-09-30T10:28:04.985Z,11.56
2022-09-30T10:31:29.700Z,11.53
2022-09-30T10:34:52.511Z,11.52
2022-09-30T10:38:10.129Z,11.53
2022-09-30T10:41:32.613Z,11.54
2022-09-30T10:44:53.495Z,11.54
2022-09-30T10:48:13.421Z,11.56
2022-09-30T10:51:39.203Z,11.59
2022-09-30T10:54:59.343Z,11.61
2022-09-30T10:58:36.048Z,11.62
2022-09-30T11:01:59.293Z,11.65
2022-09-30T11:05:23.697Z,11.69
2022-09-30T11:08:47.267Z,11.72
2022-09-30T11:15:28.031Z,11.78
2022-09-30T11:18:52.406Z,11.79
2022-09-30T11:22:20.587Z,11.81
2022-09-30T11:29:14.392Z,11.86
2022-09-30T11:33:03.398Z,11.89
2022-09-30T11:36:21.399Z,11.91
2022-09-30T11:44:32.369Z,11.90
2022-09-30T11:48:19.542Z,11.92
2022-09-30T11:51:42.207Z,11.92
2022-09-30T11:55:30.780Z,11.96
2022-09-30T11:58:53.803Z,12.01
2022-09-30T12:02:18.419Z,12.05
2022-09-30T12:05:40.143Z,12.07
2022-09-30T12:09:02.959Z,12.11
2022-09-30T12:15:36.470Z,12.18
2022-09-30T12:18:57.294Z,12.18
2022-09-30T12:22:19.105Z,12.17
2022-09-30T12:25:40.675Z,12.20
2022-09-30T12:29:16.004Z,12.21
2022-09-30T12:33:11.809Z,12.21
2022-09-30T12:36:51.261Z,12.21
2022-09-30T12:40:32.203Z,12.21
2022-09-30T12:44:41.493Z,12.23
2022-09-30T12:48:01.140Z,12.24
2022-09-30T12:51:26.544Z,12.25
2022-09-30T12:54:46.642Z,12.29
2022-09-30T12:58:06.889Z,12.28
2022-09-30T13:01:27.667Z,12.32
2022-09-30T13:04:47.550Z,12.28
2022-09-30T13:08:29.681Z,12.28
2022-09-30T13:11:51.529Z,12.32
2022-09-30T13:15:48.924Z,12.37
2022-09-30T13:19:16.723Z,12.39
2022-09-30T13:23:06.792Z,12.46
2022-09-30T13:26:45.453Z,12.48
2022-09-30T13:30:01.588Z,12.50
2022-09-30T13:33:51.151Z,12.50
2022-09-30T13:37:12.127Z,12.52
2022-09-30T13:46:19.012Z,12.52
2022-09-30T13:49:44.491Z,12.54
2022-09-30T13:53:05.017Z,12.47
2022-09-30T13:56:28.971Z,12.49
2022-09-30T14:00:00.995Z,12.55
2022-09-30T14:03:49.705Z,12.62
2022-09-30T14:07:13.933Z,12.64
2022-09-30T14:10:43.500Z,12.69
2022-09-30T14:14:11.935Z,12.71
2022-09-30T14:18:11.105Z,12.74
2022-09-30T14:21:40.032Z,12.77
2022-09-30T14:24:57.932Z,12.83
2022-09-30T14:31:32.046Z,12.87
2022-09-30T14:34:52.968Z,12.89
2022-09-30T14:38:25.918Z,12.90
2022-09-30T14:45:10.924Z,12.88
2022-09-30T14:48:32.631Z,12.85
2022-09-30T14:51:53.049Z,12.79
2022-09-30T14:55:09.675Z,12.76
2022-09-30T15:01:46.197Z,12.74
2022-09-30T15:05:05.915Z,12.70
2022-09-30T15:08:27.031Z,12.68
2022-09-30T15:15:02.475Z,12.64
2022-09-30T15:18:48.273Z,12.60
2022-09-30T15:22:10.176Z,12.57
2022-09-30T15:25:28.933Z,12.56
2022-09-30T15:28:48.694Z,12.52
2022-09-30T15:32:13.315Z,12.49
2022-09-30T15:35:30.781Z,12.51
2022-09-30T15:38:50.740Z,12.52
2022-09-30T15:42:07.331Z,12.52
2022-09-30T15:45:42.223Z,12.53
2022-09-30T15:48:59.483Z,12.51
2022-09-30T15:52:46.041Z,12.54
2022-09-30T15:56:04.063Z,12.54
2022-09-30T15:59:24.029Z,12.53
2022-09-30T16:02:40.499Z,12.48
2022-09-30T16:05:56.956Z,12.47
2022-09-30T16:09:25.893Z,12.45
2022-09-30T16:12:47.512Z,12.40
2022-09-30T16:16:06.109Z,12.44
2022-09-30T16:19:29.263Z,12.39
2022-09-30T16:23:02.708Z,12.39
2022-09-30T16:29:37.204Z,12.37
2022-09-30T16:32:56.726Z,12.35
2022-09-30T16:36:15.637Z,12.34
2022-09-30T16:39:29.650Z,12.34
2022-09-30T16:42:46.045Z,12.34
2022-09-30T16:46:05.409Z,12.32
2022-09-30T16:49:27.612Z,12.29
2022-09-30T16:52:44.358Z,12.28
2022-09-30T16:56:01.862Z,12.27
2022-09-30T16:59:23.275Z,12.34
2022-09-30T17:02:41.834Z,12.33
2022-09-30T17:05:58.896Z,12.31
2022-09-30T17:09:15.831Z,12.32
2022-09-30T17:15:48.512Z,12.34
2022-09-30T17:19:05.527Z,12.33
2022-09-30T17:22:23.074Z,12.32
2022-09-30T17:25:41.562Z,12.32
2022-09-30T17:29:14.696Z,12.31
2022-09-30T17:32:20.163Z,12.33
2022-09-30T17:35:39.227Z,12.30
2022-09-30T17:38:57.405Z,12.31
2022-09-30T17:42:30.407Z,12.29
2022-09-30T17:45:49.433Z,12.29
2022-09-30T17:49:06.611Z,12.29
2022-09-30T17:52:24.842Z,12.28
2022-09-30T17:55:43.690Z,12.32
2022-09-30T17:59:03.014Z,12.29
2022-09-30T18:02:22.825Z,12.27
2022-09-30T18:05:45.105Z,12.31
2022-09-30T18:09:03.024Z,12.27
2022-09-30T18:12:20.316Z,12.27
2022-09-30T18:15:39.178Z,12.27
2022-09-30T18:18:58.806Z,12.26
2022-09-30T18:22:17.569Z,12.23
2022-09-30T18:25:37.439Z,12.22
2022-09-30T18:28:57.777Z,12.22
2022-09-30T18:32:15.384Z,12.23
2022-09-30T18:35:39.254Z,12.22
2022-09-30T18:38:59.790Z,12.21
2022-09-30T18:45:34.060Z,12.25
2022-09-30T18:48:57.132Z,12.24
2022-09-30T18:52:16.009Z,12.19
2022-09-30T18:55:34.262Z,12.20
2022-09-30T19:02:07.848Z,12.16
2022-09-30T19:05:25.967Z,12.21
2022-09-30T19:08:44.555Z,12.22
2022-09-30T19:12:03.093Z,12.22
2022-09-30T19:15:25.395Z,12.23
2022-09-30T19:18:45.544Z,12.18
2022-09-30T19:22:03.826Z,12.11
2022-09-30T19:25:21.546Z,12.10
2022-09-30T19:28:43.601Z,12.05
2022-09-30T19:32:00.872Z,12.07
2022-09-30T19:35:25.114Z,12.06
2022-09-30T19:38:42.975Z,12.10
2022-09-30T19:45:17.538Z,12.03
2022-09-30T19:48:38.484Z,11.97
2022-09-30T19:51:57.205Z,11.98
2022-09-30T19:55:17.017Z,11.98
2022-09-30T20:01:50.749Z,11.94
2022-09-30T20:05:08.370Z,11.93
2022-09-30T20:08:25.671Z,11.98
2022-09-30T20:11:49.126Z,11.99
2022-09-30T20:15:20.520Z,12.04
2022-09-30T20:18:39.717Z,12.03
2022-09-30T20:21:57.794Z,12.01
2022-09-30T20:25:18.334Z,12.02
2022-09-30T20:31:52.077Z,12.01
2022-09-30T20:35:09.051Z,12.02
2022-09-30T20:38:27.219Z,12.04
2022-09-30T20:41:46.377Z,12.06
2022-09-30T20:45:03.966Z,12.07
2022-09-30T20:48:20.736Z,12.06
2022-09-30T20:51:38.884Z,12.01
2022-09-30T20:54:55.236Z,12.00
2022-09-30T20:58:13.453Z,12.00
2022-09-30T21:01:32.131Z,12.00
2022-09-30T21:04:52.550Z,12.00
2022-09-30T21:08:08.005Z,12.03
2022-09-30T21:11:28.114Z,12.03
2022-09-30T21:14:45.030Z,12.03
2022-09-30T21:18:04.764Z,12.02
2022-09-30T21:21:25.521Z,12.03
2022-09-30T21:24:41.791Z,12.03
2022-09-30T21:27:58.838Z,12.05
2022-09-30T21:31:21.153Z,12.08
2022-09-30T21:34:37.652Z,12.08
2022-09-30T21:37:55.926Z,12.06
2022-09-30T21:41:14.038Z,12.04
2022-09-30T21:44:30.435Z,12.04
2022-09-30T21:47:46.501Z,12.00
2022-09-30T21:51:02.754Z,11.97
2022-09-30T21:54:20.058Z,11.95
2022-09-30T22:04:07.819Z,11.89
2022-09-30T22:07:25.910Z,11.90
2022-09-30T22:10:42.472Z,11.89
2022-09-30T22:17:16.508Z,11.91
2022-09-30T22:20:33.261Z,11.91
2022-09-30T22:23:51.373Z,11.88
2022-09-30T22:30:23.547Z,11.91
2022-09-30T22:33:53.678Z,11.87
2022-09-30T22:37:23.897Z,11.84
2022-09-30T22:40:40.129Z,11.85
2022-09-30T22:43:56.202Z,11.79
2022-09-30T22:47:13.669Z,11.78
2022-09-30T22:50:30.369Z,11.73
2022-09-30T22:53:46.369Z,11.72
2022-09-30T22:57:04.439Z,11.69
2022-09-30T23:00:22.955Z,11.66
2022-09-30T23:03:39.952Z,11.60
2022-09-30T23:06:57.715Z,11.60
2022-09-30T23:10:17.673Z,11.59
2022-09-30T23:13:36.175Z,11.57
2022-09-30T23:16:52.657Z,11.57
2022-09-30T23:20:09.700Z,11.53
2022-09-30T23:23:25.854Z,11.53
2022-09-30T23:26:42.066Z,11.51
2022-09-30T23:29:58.206Z,11.50
2022-09-30T23:33:16.007Z,11.51
2022-09-30T23:36:34.615Z,11.46
2022-09-30T23:39:50.807Z,11.46
2022-09-30T23:43:07.964Z,11.47
2022-09-30T23:46:25.431Z,11.46
2022-09-30T23:49:43.888Z,11.47
2022-09-30T23:52:58.094Z,11.44
2022-09-30T23:56:17.498Z,11.38
2022-09-30T23:59:33.743Z,11.37
